Latest Weather Observations for Sydney Harbour

IDN60801

Issued at 3:32 pm EDT Thursday 2 April 2015 (issued every 30 minutes, with the page automatically refreshed every 10 minutes)

About weather observations | Map of weather stations | Latest weather observations for NSW | Other Formats
Station Details ID: 066196 Name: WEDDING CAKE WEST Lat: -33.84 Lon: 151.26 Height: 6.0 m
Data from the previous 72 hours. | See also: Recent months for locations in New South Wales
Date/Time
EDT
Temp
°C
App
Temp
°C
Dew
Point
Rel
Hum
%
Delta-T
°C
Wind Press
QNH
hPa
Press
MSL
hPa
Rain
since 9 am
mm
Dir
 
Spd
km/h
Gust
km/h
Spd
kts
Gust
kts
02/03:30pm 23.7 - - - - NNE 28 30 15 16 - - -
02/03:00pm 23.5 - - - - NNE 24 28 13 15 - - -
02/02:30pm 23.8 - - - - NNE 22 28 12 15 - - -
02/02:00pm 24.3 - - - - NE 11 15 6 8 - - -
02/01:30pm 25.0 - - - - NE 11 15 6 8 - - -
02/01:00pm 23.6 - - - - NNE 13 15 7 8 - - -
02/12:30pm 23.2 - - - - NNE 15 17 8 9 - - -
02/12:00pm 23.1 - - - - NNE 11 13 6 7 - - -
02/11:30am 22.5 - - - - NNE 11 13 6 7 - - -
02/11:00am 21.9 - - - - NNE 11 13 6 7 - - -
02/10:30am 21.7 - - - - NNE 11 15 6 8 - - -
02/10:00am 21.1 - - - - N 7 9 4 5 - - -
02/09:30am 20.5 - - - - NNE 9 11 5 6 - - -
02/09:00am 20.3 - - - - NNE 11 13 6 7 - - -
02/08:30am 20.2 - - - - NNE 9 11 5 6 - - -
02/08:00am 20.1 - - - - NNE 7 9 4 5 - - -
02/07:30am 20.1 - - - - N 7 9 4 5 - - -
02/07:00am 19.7 - - - - N 7 9 4 5 - - -
02/06:30am 19.9 - - - - N 11 13 6 7 - - -
02/06:00am 20.3 - - - - N 15 17 8 9 - - -
02/05:30am 20.1 - - - - N 15 19 8 10 - - -
02/05:00am 20.3 - - - - N 17 20 9 11 - - -
02/04:30am 20.6 - - - - N 13 17 7 9 - - -
02/04:00am 20.8 - - - - N 15 19 8 10 - - -
02/03:30am 21.0 - - - - N 15 17 8 9 - - -
02/03:00am 20.8 - - - - N 15 17 8 9 - - -
02/02:30am 21.1 - - - - N 11 13 6 7 - - -
02/02:00am 21.4 - - - - N 13 17 7 9 - - -
02/01:30am 21.7 - - - - N 17 22 9 12 - - -
02/01:00am 21.8 - - - - N 13 19 7 10 - - -
02/12:30am 21.6 - - - - N 13 15 7 8 - - -
02/12:00am 22.0 - - - - N 13 15 7 8 - - -
 
Date/Time
EDT
Temp
°C
App
Temp
°C
Dew
Point
Rel
Hum
%
Delta-T
°C
Wind Press
QNH
hPa
Press
MSL
hPa
Rain
since 9 am
mm
Dir
 
Spd
km/h
Gust
km/h
Spd
kts
Gust
kts
01/11:30pm 22.5 - - - - N 17 20 9 11 - - -
01/11:00pm 22.8 - - - - N 20 26 11 14 - - -
01/10:30pm 23.0 - - - - N 26 33 14 18 - - -
01/10:00pm 23.1 - - - - N 28 35 15 19 - - -
01/09:30pm 23.1 - - - - NNE 33 43 18 23 - - -
01/09:00pm 23.1 - - - - NNE 35 44 19 24 - - -
01/08:30pm 23.1 - - - - NNE 35 43 19 23 - - -
01/08:00pm 23.0 - - - - NNE 30 35 16 19 - - -
01/07:30pm 23.0 - - - - NNE 30 35 16 19 - - -
01/07:00pm 23.0 - - - - NNE 28 39 15 21 - - -
01/06:30pm 23.0 - - - - NNE 28 33 15 18 - - -
01/06:00pm 23.0 - - - - NNE 28 33 15 18 - - -
01/05:30pm 23.1 - - - - NNE 30 33 16 18 - - -
01/05:00pm 23.1 - - - - NNE 32 37 17 20 - - -
01/04:30pm 23.1 - - - - NNE 26 32 14 17 - - -
01/04:00pm 22.8 - - - - NNE 28 33 15 18 - - -
01/03:30pm 22.5 - - - - NNE 20 26 11 14 - - -
01/03:00pm 22.3 - - - - NNE 20 26 11 14 - - -
01/02:30pm 22.1 - - - - NE 22 28 12 15 - - -
01/02:00pm 22.0 - - - - NE 22 30 12 16 - - -
01/01:30pm 22.2 - - - - NNE 20 26 11 14 - - -
01/01:00pm 22.1 - - - - NNE 19 28 10 15 - - -
01/12:30pm 22.4 - - - - NNE 20 22 11 12 - - -
01/12:00pm 22.3 - - - - NE 24 30 13 16 - - -
01/11:30am 22.0 - - - - NNE 20 24 11 13 - - -
01/11:00am 21.9 - - - - NNE 17 20 9 11 - - -
01/10:30am 21.5 - - - - W 6 15 3 8 - - -
01/10:00am 20.2 - - - - W 6 7 3 4 - - -
01/09:30am 20.3 - - - - CALM 0 0 0 0 - - -
01/09:00am 20.5 - - - - CALM 0 0 0 0 - - -
01/08:30am 19.6 - - - - CALM 0 0 0 0 - - -
01/08:00am 19.2 - - - - W 4 7 2 4 - - -
01/07:30am 18.7 - - - - W 6 7 3 4 - - -
01/07:00am 18.8 - - - - W 6 7 3 4 - - -
01/06:30am 18.9 - - - - W 7 9 4 5 - - -
01/06:00am 18.8 - - - - WSW 11 13 6 7 - - -
01/05:30am 18.8 - - - - WSW 9 11 5 6 - - -
01/05:00am 18.7 - - - - WSW 15 17 8 9 - - -
01/04:30am 18.7 - - - - WSW 13 17 7 9 - - -
01/04:00am 18.9 - - - - WSW 13 15 7 8 - - -
01/03:30am 19.3 - - - - WSW 7 11 4 6 - - -
01/03:00am 19.3 - - - - NW 7 11 4 6 - - -
01/02:30am 19.1 - - - - NW 19 26 10 14 - - -
01/02:00am 19.8 - - - - NE 4 20 2 11 - - -
01/01:30am 20.5 - - - - NE 7 9 4 5 - - -
01/01:00am 20.5 - - - - NE 7 9 4 5 - - -
01/12:30am 20.4 - - - - NE 4 9 2 5 - - -
01/12:00am 20.4 - - - - NE 4 7 2 4 - - -
 
Date/Time
EDT
Temp
°C
App
Temp
°C
Dew
Point
Rel
Hum
%
Delta-T
°C
Wind Press
QNH
hPa
Press
MSL
hPa
Rain
since 9 am
mm
Dir
 
Spd
km/h
Gust
km/h
Spd
kts
Gust
kts
31/11:30pm 20.8 - - - - NE 6 6 3 3 - - -
31/11:00pm 21.1 - - - - NE 6 7 3 4 - - -
31/10:30pm 21.3 - - - - NE 9 13 5 7 - - -
31/10:00pm 21.5 - - - - NE 17 20 9 11 - - -
31/09:30pm 21.6 - - - - ENE 19 22 10 12 - - -
31/09:00pm 21.7 - - - - E 19 22 10 12 - - -
31/08:30pm 21.9 - - - - ENE 17 20 9 11 - - -
31/08:00pm 21.6 - - - - E 17 20 9 11 - - -
31/07:30pm 21.3 - - - - ESE 13 15 7 8 - - -
31/07:00pm 21.3 - - - - ESE 15 17 8 9 - - -
31/06:30pm 22.0 - - - - ESE 15 19 8 10 - - -
31/06:00pm 22.5 - - - - SE 15 20 8 11 - - -
31/05:30pm 22.5 - - - - ESE 15 19 8 10 - - -
31/05:00pm 22.7 - - - - E 17 20 9 11 - - -
31/04:30pm 22.6 - - - - ESE 15 19 8 10 - - -
31/04:00pm 22.7 - - - - ESE 17 20 9 11 - - -
31/03:30pm 23.0 - - - - E 13 15 7 8 - - -
31/03:00pm 22.3 - - - - NE 7 13 4 7 - - -
31/02:30pm 21.7 - - - - NE 13 15 7 8 - - -
31/02:00pm 21.7 - - - - NNE 15 20 8 11 - - -
31/01:30pm 21.4 - - - - NNE 20 26 11 14 - - -
31/01:00pm 21.1 - - - - NNE 15 20 8 11 - - -
31/12:30pm 20.5 - - - - NNE 15 19 8 10 - - -
31/12:00pm 20.4 - - - - N 19 28 10 15 - - -
31/11:30am 18.6 - - - - NE 24 32 13 17 - - -
31/11:00am 20.5 - - - - ESE 19 28 10 15 - - -
31/10:30am 21.9 - - - - SE 17 20 9 11 - - -
31/10:00am 21.7 - - - - SE 17 19 9 10 - - -
31/09:30am 21.5 - - - - SE 15 19 8 10 - - -
31/09:00am 21.3 - - - - SSE 13 19 7 10 - - -
31/08:30am 20.7 - - - - WSW 9 11 5 6 - - -
31/08:00am 20.3 - - - - WSW 7 9 4 5 - - -
31/07:30am 19.8 - - - - WSW 6 7 3 4 - - -
31/07:00am 19.7 - - - - WSW 6 7 3 4 - - -
31/06:30am 19.7 - - - - WSW 6 9 3 5 - - -
31/06:00am 19.9 - - - - WSW 11 13 6 7 - - -
31/05:30am 19.4 - - - - WSW 9 11 5 6 - - -
31/05:00am 19.4 - - - - SW 13 17 7 9 - - -
31/04:30am 19.4 - - - - WSW 11 15 6 8 - - -
31/04:00am 19.2 - - - - W 11 15 6 8 - - -
31/03:30am 19.2 - - - - WSW 15 20 8 11 - - -
31/03:00am 19.1 - - - - W 11 13 6 7 - - -
31/02:30am 19.0 - - - - W 7 9 4 5 - - -
31/02:00am 19.1 - - - - W 7 11 4 6 - - -
31/01:30am 19.1 - - - - NNW 7 11 4 6 - - -
31/01:00am 19.1 - - - - N 7 7 4 4 - - -
31/12:30am 19.0 - - - - N 7 9 4 5 - - -
31/12:00am 19.3 - - - - N 6 7 3 4 - - -
 
Date/Time
EDT
Temp
°C
App
Temp
°C
Dew
Point
Rel
Hum
%
Delta-T
°C
Wind Press
QNH
hPa
Press
MSL
hPa
Rain
since 9 am
mm
Dir
 
Spd
km/h
Gust
km/h
Spd
kts
Gust
kts
30/11:30pm 19.1 - - - - N 13 17 7 9 - - -
30/11:00pm 20.0 - - - - NNE 28 37 15 20 - - -
30/10:59pm 20.1 - - - - NNE 28 35 15 19 - - -
30/10:30pm 21.5 - - - - E 7 11 4 6 - - -
30/10:00pm 21.3 - - - - E 6 9 3 5 - - -
30/09:30pm 21.4 - - - - E 6 9 3 5 - - -
30/09:00pm 21.4 - - - - E 7 7 4 4 - - -
30/08:30pm 21.5 - - - - E 7 7 4 4 - - -
30/08:00pm 21.7 - - - - ENE 9 11 5 6 - - -
30/07:30pm 21.6 - - - - NE 9 11 5 6 - - -
30/07:00pm 21.6 - - - - NE 13 13 7 7 - - -
30/06:30pm 21.6 - - - - NE 15 19 8 10 - - -
30/06:00pm 21.5 - - - - NE 15 17 8 9 - - -
30/05:30pm 21.5 - - - - NE 19 22 10 12 - - -
30/05:00pm 21.9 - - - - ENE 20 24 11 13 - - -
30/04:30pm 21.9 - - - - NE 20 24 11 13 - - -
30/04:00pm 21.8 - - - - ENE 19 26 10 14 - - -

Other Formats:

Comma delimited format used in spreadsheet applications
http://www.bom.gov.au/fwo/IDN60801/IDN60801.95766.axf

JavaScript Object Notation format (JSON) in row-major order
http://www.bom.gov.au/fwo/IDN60801/IDN60801.95766.json